Stolford, United Kingdom

08:19 AM BST ar Hydref 24, 2017 (GMT +0100)
Stockland Bristol, Somerset, UK | | Change Station

Elev 20 ft 51.19 °N, 3.08 °W | Updated 4 minutes ago

Cymylog
Cymylog
61.7 °F
Feels Like 61.7 °F
N
11.4
Gwynt Cyfnewidiol Gwynt from De
Gusts 12.1 mph

Heddiw
High -- | Low -- °F
--% Chance of Precip.
Yesterday
High -- | Low -- °F
Precip. -- mod
Gwasgedd 30.01 mod
Gwelededd 6.2 Milltiroedd
Clouds Cymylog Yn Bennaf 1100 ft
Cymylog 1600 ft
Gwlithbwynt 58 °F
Lleithder 86%
Rainfall 0.00 mod
Snow Depth Not available.
7:51 AM 6:00 PM
Waxing Crescent, 18% visible
METAR EGFF 240650Z AUTO 25010KT 9999 BKN011 OVC016 16/15 Q1016
Gwasgedd 30.01 mod
Gwelededd 6.2 Milltiroedd
Clouds Cymylog Yn Bennaf 1100 ft
Cymylog 1600 ft
Gwlithbwynt 58 °F
Lleithder 86%
Rainfall 0.00 mod
Snow Depth Not available.
7:51 AM 6:00 PM
Waxing Crescent, 18% visible
METAR EGFF 240650Z AUTO 25010KT 9999 BKN011 OVC016 16/15 Q1016

Get Severe Weather Alerts

Thanks for signing up!

Be on the lookout for a verification email in your inbox.

You'll start receiving the daily forecast at 6 AM.

×

10-Day Weather Forecast

×

Almanac

Astronomy

Oct. 24, 2017 Rise Set
Actual Time
Civil Twilight
Nautical Twilight
Astronomical Twilight
Moon
Length Of Visible Light
Length of Day
Tomorrow will be .
, % of the Moon is Illuminated

Today's Extremes

Country Highs Country Lows

Community

WunderPhotos

Category 6

Welcome to Category 6. This is the collective home for Weather Underground's featured writeups by Dr. Jeff Masters (right), Bob Henson (left), Chris Burt, and other regular contributors.

Nearby

Air Quality

  Air Quality AQ Index Pollutant
Not available.

Snow Depth

Station Depth Elevation

Earthquake Activity

City Distance Mag. Time & Date
Minimum magnitude displayed is 2.5.

Coastal Water Temperatures

Lle Tymheredd

Stations

Nearby Weather Stations

Station Location Temp Oerfel Gwynt Gwlithbwynt Lleithder Gwynt Precip. Elev Diweddarwyd Type